createdAt,value
2022-12-28T00:02:20.530Z,98.21
2022-12-28T00:04:48.129Z,97.86
2022-12-28T00:07:15.545Z,97.65
2022-12-28T00:09:43.043Z,97.89
2022-12-28T00:12:10.535Z,97.68
2022-12-28T00:14:38.089Z,98.30
2022-12-28T00:17:05.306Z,97.76
2022-12-28T00:19:34.160Z,98.31
2022-12-28T00:22:01.664Z,97.67
2022-12-28T00:24:28.985Z,97.83
2022-12-28T00:26:57.046Z,97.93
2022-12-28T00:29:24.656Z,98.04
2022-12-28T00:31:52.160Z,98.27
2022-12-28T00:34:24.040Z,97.28
2022-12-28T00:37:10.260Z,98.17
2022-12-28T00:39:41.597Z,97.78
2022-12-28T00:42:09.257Z,98.02
2022-12-28T00:44:37.850Z,97.18
2022-12-28T00:47:05.198Z,97.05
2022-12-28T00:49:32.657Z,97.40
2022-12-28T00:52:02.192Z,97.40
2022-12-28T00:54:29.519Z,97.54
2022-12-28T00:56:57.070Z,97.54
2022-12-28T00:59:24.424Z,97.97
2022-12-28T01:01:51.903Z,97.10
2022-12-28T01:04:19.302Z,97.05
2022-12-28T01:06:48.105Z,97.89
2022-12-28T01:09:16.942Z,97.23
2022-12-28T01:11:44.268Z,97.18
2022-12-28T01:14:11.676Z,97.61
2022-12-28T01:16:39.712Z,97.23
2022-12-28T01:19:19.039Z,97.37
2022-12-28T01:21:48.546Z,96.97
2022-12-28T01:24:18.534Z,97.67
2022-12-28T01:26:45.886Z,97.16
2022-12-28T01:29:13.247Z,97.10
2022-12-28T01:31:40.539Z,97.11
2022-12-28T01:34:08.094Z,97.29
2022-12-28T01:36:35.566Z,96.63
2022-12-28T01:39:06.043Z,96.55
2022-12-28T01:41:40.665Z,97.20
2022-12-28T01:44:39.955Z,97.53
2022-12-28T01:47:20.242Z,97.15
2022-12-28T01:49:54.365Z,97.44
2022-12-28T01:52:28.343Z,97.75
2022-12-28T01:55:00.510Z,97.14
2022-12-28T01:57:31.784Z,97.78
2022-12-28T02:00:04.343Z,97.14
2022-12-28T02:02:46.066Z,97.03
2022-12-28T02:05:14.548Z,97.38
2022-12-28T02:07:47.964Z,96.57
2022-12-28T02:10:40.801Z,96.80
2022-12-28T02:13:05.625Z,97.65
2022-12-28T02:15:33.113Z,97.48
2022-12-28T02:18:01.038Z,96.89
2022-12-28T02:20:39.636Z,97.29
2022-12-28T02:23:38.533Z,97.23
2022-12-28T02:26:45.470Z,96.93
2022-12-28T02:29:35.005Z,96.66
2022-12-28T02:32:11.269Z,96.67
2022-12-28T02:34:47.996Z,96.80
2022-12-28T02:37:19.937Z,96.88
2022-12-28T02:39:51.986Z,96.92
2022-12-28T02:42:21.006Z,96.66
2022-12-28T02:45:08.760Z,96.99
2022-12-28T02:47:55.371Z,96.77
2022-12-28T02:50:29.352Z,97.88
2022-12-28T02:53:34.687Z,97.15
2022-12-28T02:56:15.462Z,97.02
2022-12-28T02:59:26.892Z,97.69
2022-12-28T03:02:19.561Z,96.89
2022-12-28T03:05:08.714Z,96.48
2022-12-28T03:08:04.020Z,97.24
2022-12-28T03:10:41.124Z,96.86
2022-12-28T03:13:33.153Z,97.31
2022-12-28T03:16:05.485Z,97.01
2022-12-28T03:18:56.503Z,96.87
2022-12-28T03:21:46.421Z,96.48
2022-12-28T03:24:35.418Z,96.49
2022-12-28T03:27:26.605Z,95.83
2022-12-28T03:30:19.653Z,96.51
2022-12-28T03:32:49.705Z,96.06
2022-12-28T03:35:21.857Z,95.94
2022-12-28T03:37:56.419Z,96.13
2022-12-28T03:40:31.526Z,96.66
2022-12-28T03:43:23.170Z,96.05
2022-12-28T03:45:57.675Z,96.15
2022-12-28T03:48:25.806Z,95.69
2022-12-28T03:50:55.321Z,96.44
2022-12-28T03:53:28.382Z,96.18
2022-12-28T03:56:09.747Z,96.06
2022-12-28T03:58:37.834Z,96.38
2022-12-28T04:01:06.351Z,95.67
2022-12-28T04:03:34.943Z,95.71
2022-12-28T04:06:04.978Z,96.17
2022-12-28T04:08:33.697Z,95.78
2022-12-28T04:11:02.055Z,96.60
2022-12-28T04:13:30.840Z,96.54
2022-12-28T04:16:09.769Z,96.49
2022-12-28T04:18:38.247Z,95.92
2022-12-28T04:21:07.078Z,96.49
2022-12-28T04:23:34.945Z,96.28
2022-12-28T04:26:16.234Z,96.02
2022-12-28T04:28:45.545Z,95.71
2022-12-28T04:31:31.787Z,95.94
2022-12-28T04:34:12.122Z,95.90
2022-12-28T04:36:45.603Z,95.83
2022-12-28T04:39:15.495Z,96.57
2022-12-28T04:41:42.755Z,96.62
2022-12-28T04:44:10.016Z,95.70
2022-12-28T04:46:37.523Z,96.08
2022-12-28T04:49:05.041Z,96.02
2022-12-28T04:51:34.020Z,96.10
2022-12-28T04:54:02.727Z,96.02
2022-12-28T04:56:30.053Z,96.45
2022-12-28T04:58:59.304Z,96.00
2022-12-28T05:01:26.899Z,95.65
2022-12-28T05:03:57.981Z,96.22
2022-12-28T05:06:28.214Z,96.00
2022-12-28T05:08:56.251Z,96.61
2022-12-28T05:11:27.504Z,95.72
2022-12-28T05:13:55.044Z,95.85
2022-12-28T05:16:25.254Z,95.56
2022-12-28T05:18:52.994Z,95.97
2022-12-28T05:21:22.236Z,96.00
2022-12-28T05:23:50.471Z,95.75
2022-12-28T05:26:19.707Z,96.54
2022-12-28T05:28:48.955Z,95.78
2022-12-28T05:31:18.499Z,95.64
2022-12-28T05:33:46.923Z,96.57
2022-12-28T05:36:16.926Z,96.56
2022-12-28T05:38:45.097Z,96.01
2022-12-28T05:41:14.992Z,96.49
2022-12-28T05:43:43.034Z,95.71
2022-12-28T05:46:13.711Z,96.41
2022-12-28T05:48:42.690Z,95.94
2022-12-28T05:51:12.827Z,96.13
2022-12-28T05:53:41.328Z,96.36
2022-12-28T05:56:14.368Z,95.60
2022-12-28T05:58:42.812Z,95.91
2022-12-28T06:01:14.214Z,95.63
2022-12-28T06:03:42.465Z,95.91
2022-12-28T06:06:11.984Z,95.74
2022-12-28T06:08:39.945Z,96.19
2022-12-28T06:11:09.612Z,96.09
2022-12-28T06:13:37.963Z,96.06
2022-12-28T06:16:07.256Z,95.30
2022-12-28T06:18:36.220Z,95.55
2022-12-28T06:21:05.327Z,95.93
2022-12-28T06:23:32.894Z,96.16
2022-12-28T06:26:01.021Z,96.18
2022-12-28T06:28:28.861Z,95.68
2022-12-28T06:31:03.021Z,96.12
2022-12-28T06:33:30.900Z,96.08
2022-12-28T06:35:59.634Z,95.97
2022-12-28T06:38:32.614Z,95.90
2022-12-28T06:41:13.538Z,96.20
2022-12-28T06:43:43.085Z,95.58
2022-12-28T06:46:11.452Z,95.69
2022-12-28T06:48:39.642Z,96.28
2022-12-28T06:51:12.413Z,95.88
2022-12-28T06:53:40.219Z,96.41
2022-12-28T06:56:10.628Z,95.37
2022-12-28T06:58:38.230Z,95.61
2022-12-28T07:01:07.846Z,96.06
2022-12-28T07:03:35.480Z,95.41
2022-12-28T07:06:03.589Z,95.43
2022-12-28T07:08:32.668Z,95.95
2022-12-28T07:11:04.709Z,95.84
2022-12-28T07:13:32.189Z,96.44
2022-12-28T07:16:02.431Z,95.57
2022-12-28T07:18:29.998Z,96.40
2022-12-28T07:21:01.958Z,96.48
2022-12-28T07:23:31.457Z,96.29
2022-12-28T07:26:06.079Z,96.25
2022-12-28T07:28:33.722Z,95.89
2022-12-28T07:31:05.902Z,96.52
2022-12-28T07:33:35.067Z,96.44
2022-12-28T07:36:02.755Z,95.39
2022-12-28T07:38:30.105Z,95.43
2022-12-28T07:41:03.283Z,95.44
2022-12-28T07:43:30.674Z,95.51
2022-12-28T07:46:02.579Z,96.40
2022-12-28T07:48:31.615Z,95.74
2022-12-28T07:50:59.135Z,95.47
2022-12-28T07:53:26.557Z,95.94
2022-12-28T07:55:57.445Z,95.45
2022-12-28T07:58:26.577Z,95.25
2022-12-28T08:00:53.834Z,96.15
2022-12-28T08:03:21.311Z,95.25
2022-12-28T08:05:48.558Z,96.13
2022-12-28T08:08:15.865Z,95.94
2022-12-28T08:10:43.248Z,95.38
2022-12-28T08:13:10.530Z,95.79
2022-12-28T08:15:39.364Z,95.66
2022-12-28T08:18:06.834Z,95.95
2022-12-28T08:20:34.183Z,95.61
2022-12-28T08:23:01.774Z,95.55
2022-12-28T08:25:29.250Z,95.31
2022-12-28T08:27:56.508Z,95.75
2022-12-28T08:30:23.694Z,96.38
2022-12-28T08:32:52.676Z,96.27
2022-12-28T08:35:19.918Z,95.54
2022-12-28T08:37:47.206Z,96.37
2022-12-28T08:40:14.594Z,96.36
2022-12-28T08:42:42.013Z,95.87
2022-12-28T08:45:09.934Z,96.34
2022-12-28T08:47:37.285Z,95.50
2022-12-28T08:50:07.786Z,95.21
2022-12-28T08:52:35.379Z,95.71
2022-12-28T08:55:02.871Z,96.25
2022-12-28T08:57:30.623Z,96.18
2022-12-28T08:59:57.913Z,96.10
2022-12-28T09:02:25.391Z,95.75
2022-12-28T09:04:52.679Z,95.40
2022-12-28T09:07:21.416Z,95.68
2022-12-28T09:09:48.795Z,95.57
2022-12-28T09:12:16.065Z,95.12
2022-12-28T09:14:43.326Z,96.09
2022-12-28T09:17:10.602Z,95.09
2022-12-28T09:19:38.050Z,95.09
2022-12-28T09:22:05.349Z,94.96
2022-12-28T09:24:34.075Z,94.76
2022-12-28T09:27:01.414Z,95.08
2022-12-28T09:29:28.799Z,95.28
2022-12-28T09:31:58.029Z,94.79
2022-12-28T09:34:36.124Z,95.04
2022-12-28T09:37:05.503Z,95.60
2022-12-28T09:39:34.685Z,95.14
2022-12-28T09:42:05.822Z,95.18
2022-12-28T09:45:02.552Z,95.23
2022-12-28T09:47:38.289Z,95.06
2022-12-28T09:50:30.151Z,95.06
2022-12-28T09:53:21.942Z,94.85
2022-12-28T09:55:58.151Z,94.62
2022-12-28T09:58:25.673Z,94.55
2022-12-28T10:00:56.149Z,94.51
2022-12-28T10:03:27.059Z,95.16
2022-12-28T10:05:57.275Z,94.82
2022-12-28T10:08:26.329Z,94.47
2022-12-28T10:10:59.772Z,94.32
2022-12-28T10:16:21.411Z,94.35
2022-12-28T10:18:50.124Z,94.46
2022-12-28T10:21:20.053Z,94.74
2022-12-28T10:24:29.267Z,94.64
2022-12-28T10:26:39.198Z,93.68
2022-12-28T10:29:14.287Z,93.98
2022-12-28T10:31:41.627Z,93.48
2022-12-28T10:34:14.817Z,93.19
2022-12-28T10:36:42.820Z,93.68
2022-12-28T10:39:17.696Z,93.06
2022-12-28T10:41:48.541Z,93.40
2022-12-28T10:44:38.950Z,93.18
2022-12-28T10:47:17.292Z,93.51
2022-12-28T10:50:10.563Z,93.11
2022-12-28T10:52:38.199Z,92.91
2022-12-28T10:55:27.857Z,93.05
2022-12-28T10:58:28.082Z,92.96
2022-12-28T11:00:54.614Z,93.17
2022-12-28T11:03:26.223Z,93.90
2022-12-28T11:06:09.796Z,93.50
2022-12-28T11:08:37.408Z,93.59
2022-12-28T11:11:05.002Z,93.79
2022-12-28T11:13:34.292Z,94.33
2022-12-28T11:16:01.623Z,94.20
2022-12-28T11:18:34.633Z,93.76
2022-12-28T11:21:03.699Z,94.01
2022-12-28T11:23:32.957Z,94.12
2022-12-28T11:26:01.308Z,93.74
2022-12-28T11:28:28.718Z,93.22
2022-12-28T11:30:58.008Z,93.46
2022-12-28T11:33:32.173Z,93.18
2022-12-28T11:36:02.524Z,93.63
2022-12-28T11:38:40.744Z,93.75
2022-12-28T11:41:11.336Z,93.63
2022-12-28T11:43:49.988Z,93.42
2022-12-28T11:46:41.075Z,93.62
2022-12-28T11:49:31.230Z,93.35
2022-12-28T11:52:34.374Z,93.69
2022-12-28T11:55:22.935Z,93.31
2022-12-28T11:57:50.661Z,93.16
2022-12-28T12:00:47.461Z,93.21
2022-12-28T12:03:16.169Z,92.78
2022-12-28T12:05:53.440Z,92.68
2022-12-28T12:08:41.844Z,93.03
2022-12-28T12:11:31.045Z,93.34
2022-12-28T12:14:00.911Z,93.28
2022-12-28T12:16:35.944Z,93.77
2022-12-28T12:19:09.106Z,93.32
2022-12-28T12:21:40.535Z,93.07
2022-12-28T12:24:18.778Z,93.30
2022-12-28T12:26:50.977Z,93.70
2022-12-28T12:29:22.889Z,93.51
2022-12-28T12:32:00.327Z,93.36
2022-12-28T12:34:40.252Z,93.13
2022-12-28T12:37:44.634Z,93.23
2022-12-28T12:40:46.055Z,93.81
2022-12-28T12:43:34.696Z,93.43
2022-12-28T12:46:26.524Z,93.07
2022-12-28T12:49:16.610Z,93.19
2022-12-28T12:51:53.154Z,93.25
2022-12-28T12:54:33.930Z,92.64
2022-12-28T12:57:07.348Z,93.11
2022-12-28T12:59:54.519Z,93.14
2022-12-28T13:02:42.491Z,92.51
2022-12-28T13:05:17.616Z,92.70
2022-12-28T13:07:46.562Z,93.11
2022-12-28T13:10:18.301Z,92.32
2022-12-28T13:12:45.649Z,92.95
2022-12-28T13:15:17.491Z,92.09
2022-12-28T13:18:11.312Z,92.11
2022-12-28T13:20:56.976Z,92.42
2022-12-28T13:23:27.258Z,92.10
2022-12-28T13:25:58.085Z,92.48
2022-12-28T13:28:30.495Z,92.44
2022-12-28T13:31:09.113Z,92.55
2022-12-28T13:33:37.123Z,92.15
2022-12-28T13:36:22.250Z,92.87
2022-12-28T13:39:04.075Z,93.02
2022-12-28T13:41:35.127Z,93.02
2022-12-28T13:44:29.289Z,92.62
2022-12-28T13:47:03.559Z,92.54
2022-12-28T13:49:36.545Z,92.64
2022-12-28T13:52:07.070Z,92.21
2022-12-28T13:54:36.933Z,92.25
2022-12-28T13:57:44.538Z,92.49
2022-12-28T13:59:55.661Z,92.54
2022-12-28T14:02:24.746Z,92.48
2022-12-28T14:04:54.888Z,92.17
2022-12-28T14:07:26.794Z,92.22
2022-12-28T14:09:56.312Z,91.75
2022-12-28T14:12:24.724Z,91.65
2022-12-28T14:14:52.872Z,91.69
2022-12-28T14:17:22.129Z,92.26
2022-12-28T14:19:50.647Z,91.69
2022-12-28T14:22:31.899Z,92.36
2022-12-28T14:25:02.441Z,91.66
2022-12-28T14:27:36.393Z,91.99
2022-12-28T14:30:06.885Z,91.35
2022-12-28T14:32:42.315Z,91.31
2022-12-28T14:35:19.017Z,91.37
2022-12-28T14:37:51.613Z,92.01
2022-12-28T14:40:28.303Z,91.82
2022-12-28T14:42:56.775Z,91.32
2022-12-28T14:46:07.039Z,91.26
2022-12-28T14:48:32.970Z,91.50
2022-12-28T14:51:02.807Z,91.14
2022-12-28T14:53:31.304Z,91.50
2022-12-28T14:56:04.856Z,91.42
2022-12-28T14:58:39.507Z,91.60
2022-12-28T15:01:11.005Z,91.08
2022-12-28T15:03:54.191Z,91.89
2022-12-28T15:06:22.669Z,91.17
2022-12-28T15:08:50.619Z,91.17
2022-12-28T15:11:20.859Z,91.01
2022-12-28T15:13:48.885Z,91.08
2022-12-28T15:16:17.827Z,91.45
2022-12-28T15:18:45.712Z,90.93
2022-12-28T15:21:14.675Z,90.77
2022-12-28T15:23:41.932Z,91.07
2022-12-28T15:26:09.610Z,92.00
2022-12-28T15:28:38.859Z,91.18
2022-12-28T15:31:07.067Z,91.03
2022-12-28T15:33:35.356Z,91.96
2022-12-28T15:36:04.073Z,91.73
2022-12-28T15:38:31.490Z,92.05
2022-12-28T15:40:59.506Z,91.44
2022-12-28T15:43:26.843Z,92.23
2022-12-28T15:45:56.305Z,91.62
2022-12-28T15:48:23.836Z,91.64
2022-12-28T15:50:51.464Z,91.27
2022-12-28T15:53:19.177Z,92.01
2022-12-28T15:55:58.579Z,91.50
2022-12-28T15:58:25.898Z,91.65
2022-12-28T16:00:53.512Z,91.80
2022-12-28T16:03:36.096Z,92.01
2022-12-28T16:06:04.094Z,91.97
2022-12-28T16:08:31.639Z,91.46
2022-12-28T16:11:07.979Z,91.15
2022-12-28T16:13:35.246Z,92.18
2022-12-28T16:16:05.854Z,91.99
2022-12-28T16:18:33.069Z,91.82
2022-12-28T16:21:04.161Z,92.17
2022-12-28T16:23:32.555Z,91.71
2022-12-28T16:25:59.804Z,92.38
2022-12-28T16:28:28.541Z,91.33
2022-12-28T16:30:56.889Z,92.19
2022-12-28T16:33:24.726Z,91.40
2022-12-28T16:35:57.713Z,91.57
2022-12-28T16:38:28.996Z,91.64
2022-12-28T16:40:56.832Z,91.93
2022-12-28T16:43:24.478Z,91.51
2022-12-28T16:45:51.775Z,92.41
2022-12-28T16:48:19.248Z,91.55
2022-12-28T16:50:57.576Z,91.71
2022-12-28T16:53:25.146Z,92.10
2022-12-28T16:55:53.987Z,92.47
2022-12-28T16:58:21.434Z,91.57
2022-12-28T17:00:48.767Z,91.77
2022-12-28T17:03:16.060Z,91.64
2022-12-28T17:05:43.483Z,91.76
2022-12-28T17:08:11.176Z,91.30
2022-12-28T17:10:41.229Z,91.14
2022-12-28T17:13:09.985Z,90.93
2022-12-28T17:15:39.755Z,91.14
2022-12-28T17:18:07.610Z,91.74
2022-12-28T17:20:36.885Z,91.40
2022-12-28T17:23:04.529Z,91.68
2022-12-28T17:25:32.022Z,91.99
2022-12-28T17:27:59.714Z,92.21
2022-12-28T17:30:28.550Z,92.04
2022-12-28T17:32:56.685Z,91.68
2022-12-28T17:35:24.195Z,92.21
2022-12-28T17:37:51.584Z,92.21
2022-12-28T17:40:19.876Z,92.14
2022-12-28T17:42:47.318Z,92.17
2022-12-28T17:45:14.640Z,92.46
2022-12-28T17:47:43.383Z,92.18
2022-12-28T17:50:10.832Z,91.62
2022-12-28T17:52:38.184Z,92.37
2022-12-28T17:55:06.130Z,91.96
2022-12-28T17:57:38.430Z,91.65
2022-12-28T18:00:07.056Z,92.03
2022-12-28T18:02:40.101Z,91.94
2022-12-28T18:05:09.822Z,91.91
2022-12-28T18:07:37.127Z,91.77
2022-12-28T18:10:05.439Z,91.73
2022-12-28T18:12:32.672Z,91.33
2022-12-28T18:15:00.170Z,91.55
2022-12-28T18:17:27.982Z,91.48
2022-12-28T18:19:56.041Z,92.16
2022-12-28T18:22:25.063Z,92.16
2022-12-28T18:24:53.715Z,92.38
2022-12-28T18:27:21.217Z,91.47
2022-12-28T18:29:48.516Z,91.55
2022-12-28T18:32:15.941Z,92.11
2022-12-28T18:34:43.450Z,92.06
2022-12-28T18:37:10.986Z,91.34
2022-12-28T18:39:39.645Z,91.82
2022-12-28T18:42:06.911Z,91.76
2022-12-28T18:44:34.406Z,92.02
2022-12-28T18:47:01.801Z,92.16
2022-12-28T18:49:30.354Z,92.06
2022-12-28T18:51:57.972Z,92.16
2022-12-28T18:54:25.269Z,92.63
2022-12-28T18:56:53.990Z,92.61
2022-12-28T18:59:21.380Z,91.91
2022-12-28T19:02:06.371Z,92.24
2022-12-28T19:04:34.759Z,92.17
2022-12-28T19:07:02.247Z,92.80
2022-12-28T19:09:29.503Z,92.66
2022-12-28T19:11:59.216Z,92.37
2022-12-28T19:14:26.499Z,92.04
2022-12-28T19:16:53.836Z,92.63
2022-12-28T19:19:21.560Z,92.74
2022-12-28T19:21:53.658Z,92.55
2022-12-28T19:24:23.995Z,92.98
2022-12-28T19:26:51.434Z,93.08
2022-12-28T19:29:20.036Z,92.95
2022-12-28T19:31:47.559Z,92.54
2022-12-28T19:34:15.949Z,92.53
2022-12-28T19:36:43.214Z,92.63
2022-12-28T19:39:11.310Z,93.51
2022-12-28T19:41:39.936Z,93.49
2022-12-28T19:44:07.166Z,93.31
2022-12-28T19:46:36.167Z,93.94
2022-12-28T19:49:04.978Z,93.65
2022-12-28T19:51:33.466Z,93.43
2022-12-28T19:54:01.543Z,93.25
2022-12-28T19:56:29.159Z,93.54
2022-12-28T19:59:03.094Z,94.21
2022-12-28T20:01:33.830Z,93.29
2022-12-28T20:04:08.739Z,93.91
2022-12-28T20:06:39.796Z,93.40
2022-12-28T20:09:07.050Z,93.48
2022-12-28T20:11:34.280Z,93.87
2022-12-28T20:14:03.443Z,93.74
2022-12-28T20:16:33.208Z,93.69
2022-12-28T20:19:03.070Z,93.49
2022-12-28T20:21:30.645Z,93.20
2022-12-28T20:23:58.072Z,94.09
2022-12-28T20:26:27.139Z,93.54
2022-12-28T20:28:54.886Z,93.82
2022-12-28T20:31:22.994Z,93.55
2022-12-28T20:33:51.035Z,94.01
2022-12-28T20:36:21.469Z,93.68
2022-12-28T20:38:48.850Z,93.28
2022-12-28T20:41:36.433Z,93.64
2022-12-28T20:44:06.190Z,93.10
2022-12-28T20:46:33.876Z,93.88
2022-12-28T20:49:01.462Z,93.83
2022-12-28T20:51:30.177Z,93.60
2022-12-28T20:53:57.569Z,93.14
2022-12-28T20:56:25.010Z,93.80
2022-12-28T20:58:52.269Z,93.56
2022-12-28T21:01:20.109Z,93.35
2022-12-28T21:03:47.567Z,93.26
2022-12-28T21:06:15.068Z,93.39
2022-12-28T21:08:44.133Z,93.73
2022-12-28T21:11:11.438Z,93.78
2022-12-28T21:13:43.964Z,93.89
2022-12-28T21:16:12.648Z,93.28
2022-12-28T21:18:40.095Z,93.97
2022-12-28T21:21:14.151Z,93.64
2022-12-28T21:23:41.818Z,93.26
2022-12-28T21:26:13.722Z,93.49
2022-12-28T21:28:41.513Z,93.86
2022-12-28T21:31:10.507Z,93.24
2022-12-28T21:33:38.248Z,93.72
2022-12-28T21:36:08.187Z,93.88
2022-12-28T21:38:37.499Z,94.14
2022-12-28T21:41:06.915Z,94.31
2022-12-28T21:43:36.206Z,93.54
2022-12-28T21:46:05.810Z,93.46
2022-12-28T21:48:34.107Z,93.54
2022-12-28T21:51:28.732Z,94.20
2022-12-28T21:53:56.189Z,93.73
2022-12-28T21:56:24.010Z,93.51
2022-12-28T21:58:52.768Z,93.76
2022-12-28T22:01:38.787Z,94.49
2022-12-28T22:04:24.983Z,94.20
2022-12-28T22:06:52.447Z,93.78
2022-12-28T22:09:38.423Z,94.01
2022-12-28T22:12:25.090Z,93.83
2022-12-28T22:15:13.779Z,94.52
2022-12-28T22:17:41.473Z,94.42
2022-12-28T22:20:11.640Z,94.18
2022-12-28T22:22:39.689Z,94.58
2022-12-28T22:25:07.694Z,94.53
2022-12-28T22:27:35.017Z,94.33
2022-12-28T22:30:04.097Z,93.77
2022-12-28T22:32:31.843Z,93.84
2022-12-28T22:34:59.379Z,94.07
2022-12-28T22:37:27.049Z,94.37
2022-12-28T22:39:54.296Z,93.96
2022-12-28T22:42:21.692Z,94.59
2022-12-28T22:44:49.067Z,93.90
2022-12-28T22:47:17.961Z,94.46
2022-12-28T22:49:45.541Z,94.30
2022-12-28T22:52:12.932Z,94.51
2022-12-28T22:54:40.174Z,94.48
2022-12-28T22:57:07.437Z,94.77
2022-12-28T22:59:34.839Z,94.99
2022-12-28T23:02:02.642Z,94.10
2022-12-28T23:04:31.504Z,95.02
2022-12-28T23:07:03.571Z,94.82
2022-12-28T23:09:31.640Z,94.40
2022-12-28T23:11:59.388Z,94.62
2022-12-28T23:14:45.745Z,94.15
2022-12-28T23:17:15.611Z,94.96
2022-12-28T23:20:04.790Z,94.46
2022-12-28T23:22:53.408Z,94.88
2022-12-28T23:25:41.754Z,94.46
2022-12-28T23:28:11.373Z,93.89
2022-12-28T23:30:42.015Z,94.29
2022-12-28T23:33:10.039Z,93.70
2022-12-28T23:35:39.040Z,94.06
2022-12-28T23:38:06.454Z,93.84
2022-12-28T23:40:33.998Z,94.37
2022-12-28T23:43:01.248Z,94.02
2022-12-28T23:45:28.753Z,93.37
2022-12-28T23:47:56.131Z,92.96
2022-12-28T23:50:23.428Z,93.55
2022-12-28T23:52:52.253Z,93.15
2022-12-28T23:55:19.679Z,92.73
2022-12-28T23:57:47.062Z,92.64
